Time;durP1;ratioP1;P1;durP2;ratioP2;P2;SDS_P1;SDS_P2;PMS_P1;PMS_P2;Temp;Humidity;BMP_temperature;BMP_pressure;BME280_temperature;BME280_humidity;BME280_pressure;Samples;Min_cycle;Max_cycle;Signal;HPM_P1;HPM_P2
2021/11/14 00:01:39;;;;;;;173.38;46.92;;;;;;;6.37;100.00;102061.13;5067402;28;20037;-75
2021/11/14 00:04:06;;;;;;;;;;;;;;;6.43;100.00;102074.00;5068773;28;20040;-76
2021/11/14 00:06:31;;;;;;;178.65;49.92;;;;;;;6.49;100.00;102078.91;5067664;28;19966;-76
2021/11/14 00:08:57;;;;;;;191.27;54.20;;;;;;;6.53;100.00;102075.94;5067418;28;20372;-76
2021/11/14 00:11:23;;;;;;;210.77;57.92;;;;;;;6.40;100.00;102043.22;5050766;28;20116;-76
2021/11/14 00:13:50;;;;;;;195.48;55.10;;;;;;;6.49;100.00;102044.41;5067030;28;20101;-76
2021/11/14 00:16:19;;;;;;;193.45;52.40;;;;;;;6.47;100.00;102038.38;5068193;28;20335;-76
2021/11/14 00:18:44;;;;;;;189.57;52.70;;;;;;;6.45;100.00;102040.25;5068647;28;20109;-76
2021/11/14 00:21:13;;;;;;;182.95;50.25;;;;;;;6.47;100.00;102033.06;5050492;28;20396;-76
2021/11/14 00:23:39;;;;;;;182.07;54.92;;;;;;;6.37;100.00;102018.69;5066935;28;20543;-77
2021/11/14 00:26:05;;;;;;;187.50;56.15;;;;;;;6.51;100.00;102045.16;5068120;28;20261;-76
2021/11/14 00:28:31;;;;;;;189.43;54.05;;;;;;;6.49;100.00;102032.00;5066965;28;20040;-76
2021/11/14 00:31:06;;;;;;;166.27;53.83;;;;;;;6.39;100.00;102011.50;5066946;28;20035;-76
2021/11/14 00:33:32;;;;;;;167.95;53.30;;;;;;;6.41;100.00;102007.78;5067577;28;20029;-76
2021/11/14 00:35:59;;;;;;;158.17;49.53;;;;;;;6.45;100.00;102009.28;5067973;28;20115;-76
2021/11/14 00:38:25;;;;;;;160.13;49.65;;;;;;;6.50;100.00;102006.31;5067872;28;20044;-76
2021/11/14 00:40:51;;;;;;;160.23;51.13;;;;;;;6.46;100.00;101994.19;5066612;28;20036;-76
2021/11/14 00:43:17;;;;;;;147.63;50.95;;;;;;;6.48;100.00;101981.69;5067591;28;20273;-76
2021/11/14 00:45:45;;;;;;;155.77;49.47;;;;;;;6.39;100.00;101956.66;5050220;28;20039;-76
2021/11/14 00:48:12;;;;;;;162.38;50.80;;;;;;;6.41;100.00;101944.09;5067021;28;20037;-76
2021/11/14 00:50:43;;;;;;;145.65;49.45;;;;;;;6.40;100.00;101941.59;5067753;28;20024;-76
2021/11/14 00:53:15;;;;;;;149.48;45.63;;;;;;;6.45;100.00;101936.81;5067509;28;20040;-76
2021/11/14 00:55:42;;;;;;;143.93;46.72;;;;;;;6.45;100.00;101915.59;5066923;28;20347;-77
2021/11/14 00:58:08;;;;;;;131.43;47.50;;;;;;;6.45;100.00;101920.88;5066557;28;20322;-76
2021/11/14 01:00:35;;;;;;;137.02;48.47;;;;;;;6.44;100.00;101905.91;5066531;28;20032;-76
2021/11/14 01:03:02;;;;;;;140.60;46.50;;;;;;;6.39;100.00;101900.94;5066385;28;20083;-76
2021/11/14 01:05:30;;;;;;;129.15;47.22;;;;;;;6.42;100.00;101891.94;5067007;28;20032;-76
2021/11/14 01:07:56;;;;;;;133.60;44.38;;;;;;;6.40;100.00;101888.53;5067381;28;20063;-76
2021/11/14 01:10:27;;;;;;;132.55;45.33;;;;;;;6.37;100.00;101879.00;5066332;28;20036;-76
2021/11/14 01:12:53;;;;;;;129.10;46.17;;;;;;;6.38;100.00;101879.81;5067291;28;20074;-76
2021/11/14 01:15:21;;;;;;;135.15;47.55;;;;;;;6.38;100.00;101883.31;5067298;28;20025;-76
2021/11/14 01:17:47;;;;;;;141.25;44.20;;;;;;;6.37;100.00;101867.50;5066289;28;20036;-76
2021/11/14 01:20:16;;;;;;;130.73;46.65;;;;;;;6.36;100.00;101860.50;5066298;28;20055;-76
2021/11/14 01:22:43;;;;;;;119.22;43.35;;;;;;;6.33;100.00;101862.41;5066130;28;20035;-76
2021/11/14 01:25:09;;;;;;;;;;;;;;;6.36;100.00;101874.63;5066377;28;20036;-76
2021/11/14 01:27:37;;;;;;;129.40;42.80;;;;;;;6.38;100.00;101877.16;5066268;28;20015;-76
2021/11/14 01:30:11;;;;;;;115.78;41.03;;;;;;;6.34;100.00;101868.56;5066318;28;20070;-76
2021/11/14 01:32:37;;;;;;;116.95;44.33;;;;;;;6.27;100.00;101857.53;5066230;28;20032;-76
2021/11/14 01:35:03;;;;;;;;;;;;;;;6.26;100.00;101861.16;5049616;28;20024;-76
2021/11/14 01:37:29;;;;;;;113.05;40.42;;;;;;;6.17;100.00;101845.88;5066086;28;19912;-75
2021/11/14 01:39:54;;;;;;;120.53;42.00;;;;;;;6.12;100.00;101851.50;5067180;28;20058;-76
2021/11/14 01:42:20;;;;;;;119.43;43.53;;;;;;;6.10;100.00;101857.88;5066922;28;20118;-76
2021/11/14 01:44:46;;;;;;;111.15;42.47;;;;;;;6.05;100.00;101844.09;5065867;28;20417;-75
2021/11/14 01:47:11;;;;;;;112.95;39.90;;;;;;;6.00;100.00;101843.56;5065818;28;20048;-76
2021/11/14 01:49:37;;;;;;;130.37;42.83;;;;;;;5.91;100.00;101829.94;5066032;28;20123;-76
2021/11/14 01:52:03;;;;;;;121.18;45.13;;;;;;;5.97;100.00;101838.47;5066888;28;20343;-76
2021/11/14 01:54:29;;;;;;;114.68;40.28;;;;;;;5.97;100.00;101843.75;5065702;28;20064;-75
2021/11/14 01:56:55;;;;;;;124.38;42.78;;;;;;;5.99;100.00;101839.19;5065784;28;20332;-75
2021/11/14 01:59:20;;;;;;;113.50;44.10;;;;;;;5.96;100.00;101842.06;5065836;28;20444;-75
2021/11/14 02:01:46;;;;;;;107.72;41.95;;;;;;;5.98;100.00;101841.00;5066822;28;20040;-75
2021/11/14 02:04:12;;;;;;;111.40;41.75;;;;;;;5.94;100.00;101831.56;5066688;28;20044;-75
2021/11/14 02:06:42;;;;;;;120.72;39.78;;;;;;;5.98;100.00;101840.16;5065872;28;20036;-75
2021/11/14 02:09:08;;;;;;;111.82;41.95;;;;;;;5.90;100.00;101817.66;5069158;28;20466;-75
2021/11/14 02:11:35;;;;;;;110.38;42.83;;;;;;;5.95;100.00;101824.47;5069638;28;20028;-75
2021/11/14 02:14:01;;;;;;;116.85;44.72;;;;;;;5.95;100.00;101827.09;5069302;28;20036;-75
2021/11/14 02:16:29;;;;;;;117.28;44.78;;;;;;;5.92;100.00;101822.84;5071032;28;20066;-75
2021/11/14 02:18:55;;;;;;;116.88;44.35;;;;;;;5.89;100.00;101825.72;5070759;28;20603;-75
2021/11/14 02:21:22;;;;;;;105.18;41.72;;;;;;;5.89;100.00;101821.25;5052588;28;20040;-75
2021/11/14 02:23:49;;;;;;;114.35;43.95;;;;;;;5.87;100.00;101831.09;5070381;28;20096;-75
2021/11/14 02:26:14;;;;;;;98.03;39.50;;;;;;;5.87;100.00;101831.09;5070175;28;20036;-75
2021/11/14 02:28:40;;;;;;;109.47;41.40;;;;;;;5.85;100.00;101835.69;5070765;28;20039;-75
2021/11/14 02:31:06;;;;;;;102.43;41.47;;;;;;;5.80;100.00;101834.28;5070225;28;20358;-75
2021/11/14 02:33:32;;;;;;;108.28;39.47;;;;;;;5.80;100.00;101829.00;5069785;28;20119;-75
2021/11/14 02:36:03;;;;;;;113.50;44.13;;;;;;;5.87;100.00;101843.53;5052594;28;20309;-75
2021/11/14 02:38:29;;;;;;;106.80;40.08;;;;;;;5.81;100.00;101831.53;5052522;28;20024;-74
2021/11/14 02:40:56;;;;;;;103.30;38.28;;;;;;;5.87;100.00;101839.06;5068805;28;20045;-75
2021/11/14 02:43:22;;;;;;;99.57;41.45;;;;;;;5.87;100.00;101836.41;5068994;28;20046;-75
2021/11/14 02:45:48;;;;;;;;;;;;;;;5.92;100.00;101844.91;5070469;28;20033;-75
2021/11/14 02:48:14;;;;;;;130.40;46.85;;;;;;;5.90;100.00;101838.03;5069855;28;19909;-75
2021/11/14 02:50:40;;;;;;;;;;;;;;;5.91;100.00;101840.56;5069294;28;20044;-75
2021/11/14 02:53:06;;;;;;;125.50;46.97;;;;;;;5.98;100.00;101846.31;5068593;28;19999;-74
2021/11/14 02:55:32;;;;;;;111.57;41.47;;;;;;;5.92;100.00;101836.97;5068299;28;20032;-75
2021/11/14 02:57:58;;;;;;;117.22;48.28;;;;;;;5.95;100.00;101830.63;5069211;28;20029;-75
2021/11/14 03:00:29;;;;;;;117.57;44.58;;;;;;;5.98;100.00;101850.78;5068039;28;20509;-74
2021/11/14 03:02:56;;;;;;;109.55;43.35;;;;;;;5.97;100.00;101835.81;5069538;28;20398;-74
2021/11/14 03:05:22;;;;;;;112.72;45.40;;;;;;;5.99;100.00;101847.16;5068206;28;20032;-75
2021/11/14 03:07:49;;;;;;;122.78;48.10;;;;;;;5.98;100.00;101845.47;5051721;28;20024;-75
2021/11/14 03:10:18;;;;;;;120.40;45.47;;;;;;;5.98;100.00;101850.78;5068375;28;20568;-75
2021/11/14 03:13:03;;;;;;;119.40;47.35;;;;;;;6.07;100.00;101858.09;5051654;28;20024;-75
2021/11/14 03:15:34;;;;;;;127.55;47.40;;;;;;;6.06;100.00;101851.94;5069220;28;20036;-75
2021/11/14 03:18:00;;;;;;;127.30;48.05;;;;;;;6.08;100.00;101851.81;5068426;28;20505;-75
2021/11/14 03:20:26;;;;;;;112.03;46.45;;;;;;;6.12;100.00;101853.31;5067374;28;20055;-75
2021/11/14 03:22:51;;;;;;;120.85;46.78;;;;;;;6.10;100.00;101852.56;5068358;28;20054;-75
2021/11/14 03:25:24;;;;;;;126.53;48.37;;;;;;;6.08;100.00;101852.66;5069044;28;20044;-75
2021/11/14 03:27:51;;;;;;;124.95;48.15;;;;;;;5.99;100.00;101832.09;5068246;28;20456;-75
2021/11/14 03:30:18;;;;;;;121.85;47.85;;;;;;;6.12;100.00;101845.38;5051661;28;20032;-75
2021/11/14 03:32:44;;;;;;;125.85;48.75;;;;;;;6.08;100.00;101850.00;5068343;28;20028;-75
2021/11/14 03:35:10;;;;;;;127.43;51.25;;;;;;;6.16;100.00;101861.88;5068846;28;20032;-75
2021/11/14 03:37:35;;;;;;;130.48;51.05;;;;;;;6.22;100.00;101854.38;5068001;28;20066;-75
2021/11/14 03:40:04;;;;;;;138.73;50.97;;;;;;;6.14;100.00;101840.81;5067999;28;20029;-75
2021/11/14 03:42:30;;;;;;;129.80;47.13;;;;;;;6.16;100.00;101849.50;5067814;28;20044;-75
2021/11/14 03:44:56;;;;;;;137.77;49.80;;;;;;;6.08;100.00;101838.56;5067740;28;20373;-75
2021/11/14 03:47:21;;;;;;;139.70;51.07;;;;;;;6.16;100.00;101848.63;5068900;28;20362;-75
2021/11/14 03:49:47;;;;;;;138.23;49.42;;;;;;;6.13;100.00;101855.00;5067912;28;20434;-75
2021/11/14 03:52:13;;;;;;;131.67;48.87;;;;;;;6.20;100.00;101868.69;5067394;28;20570;-75
2021/11/14 03:54:39;;;;;;;131.35;50.55;;;;;;;6.22;100.00;101874.75;5050866;28;20036;-75
2021/11/14 03:57:05;;;;;;;117.93;45.28;;;;;;;6.20;100.00;101874.84;5068223;28;20032;-75
2021/11/14 03:59:34;;;;;;;146.13;49.88;;;;;;;6.22;100.00;101875.56;5067407;28;20097;-75
2021/11/14 04:02:00;;;;;;;129.45;50.13;;;;;;;6.23;100.00;101879.09;5067624;28;20036;-75
2021/11/14 04:04:26;;;;;;;143.10;52.35;;;;;;;6.24;100.00;101880.78;5068361;28;20124;-75
2021/11/14 04:06:53;;;;;;;142.45;50.22;;;;;;;6.27;100.00;101893.81;5067632;28;20047;-75
2021/11/14 04:09:18;;;;;;;134.00;50.80;;;;;;;6.26;100.00;101895.63;5068633;28;20496;-75
2021/11/14 04:11:44;;;;;;;131.38;49.60;;;;;;;6.28;100.00;101901.69;5067350;28;20469;-75
2021/11/14 04:14:09;;;;;;;133.67;48.63;;;;;;;6.28;100.00;101901.69;5067190;28;20115;-75
2021/11/14 04:16:35;;;;;;;137.80;52.63;;;;;;;6.30;100.00;101915.69;5067356;28;20044;-75
2021/11/14 04:19:01;;;;;;;141.35;53.33;;;;;;;6.30;100.00;101907.72;5068185;28;20114;-75
2021/11/14 04:21:26;;;;;;;139.93;53.47;;;;;;;6.36;100.00;101913.56;5068078;28;20025;-75
2021/11/14 04:23:52;;;;;;;139.88;50.08;;;;;;;6.32;100.00;101913.78;5066854;28;20282;-75
2021/11/14 04:26:19;;;;;;;136.40;49.17;;;;;;;6.31;100.00;101912.06;5067938;28;20101;-75
2021/11/14 04:28:45;;;;;;;141.88;51.92;;;;;;;6.32;100.00;101910.25;5067244;28;20048;-75
2021/11/14 04:31:10;;;;;;;147.48;51.25;;;;;;;6.31;100.00;101908.56;5048477;28;20377;-75
2021/11/14 04:33:37;;;;;;;139.18;52.33;;;;;;;6.32;100.00;101913.78;5065985;28;20039;-75
2021/11/14 04:36:03;;;;;;;158.27;52.72;;;;;;;6.27;100.00;101915.88;5066388;28;20028;-75
2021/11/14 04:38:29;;;;;;;150.02;51.85;;;;;;;6.37;100.00;101936.47;5065284;28;20032;-75
2021/11/14 04:40:55;;;;;;;129.83;47.67;;;;;;;6.35;100.00;101933.94;5065193;28;20462;-76
2021/11/14 04:43:21;;;;;;;142.63;51.20;;;;;;;6.36;100.00;101934.78;5065970;28;20055;-75
2021/11/14 04:45:49;;;;;;;141.32;51.33;;;;;;;6.38;100.00;101941.69;5066868;28;20070;-75
2021/11/14 04:48:33;;;;;;;144.68;52.17;;;;;;;6.39;100.00;101942.53;5067107;28;20043;-75
2021/11/14 04:50:58;;;;;;;128.13;48.60;;;;;;;6.38;100.00;101944.34;5066545;28;20036;-75
2021/11/14 04:53:24;;;;;;;140.20;51.23;;;;;;;6.41;100.00;101941.47;5066146;28;20413;-75
2021/11/14 04:55:49;;;;;;;137.33;47.80;;;;;;;6.41;100.00;101943.28;5066372;28;20370;-75
2021/11/14 04:58:15;;;;;;;143.27;53.50;;;;;;;6.43;100.00;101944.84;5067529;28;20325;-75
2021/11/14 05:00:44;;;;;;;136.85;50.20;;;;;;;6.43;100.00;101944.00;5066718;28;20056;-75
2021/11/14 05:03:11;;;;;;;138.45;50.25;;;;;;;6.38;100.00;101931.06;5066415;28;20049;-75
2021/11/14 05:05:37;;;;;;;147.10;52.53;;;;;;;6.38;100.00;101938.19;5067260;28;20068;-75
2021/11/14 05:08:05;;;;;;;147.45;50.50;;;;;;;6.38;100.00;101933.72;5066548;28;20047;-75
2021/11/14 05:10:31;;;;;;;143.07;53.03;;;;;;;6.28;100.00;101911.44;5067401;28;20528;-75
2021/11/14 05:12:56;;;;;;;144.60;52.95;;;;;;;6.40;100.00;101930.97;5067461;28;20454;-75
2021/11/14 05:15:22;;;;;;;138.13;50.47;;;;;;;6.37;100.00;101926.72;5066121;28;20037;-75
2021/11/14 05:17:47;;;;;;;136.25;48.85;;;;;;;6.37;100.00;101918.78;5066313;28;20453;-75
2021/11/14 05:20:13;;;;;;;135.40;50.13;;;;;;;6.42;100.00;101927.25;5066128;28;20611;-75
2021/11/14 05:22:39;;;;;;;132.77;48.67;;;;;;;6.36;100.00;101918.88;5067063;28;20374;-75
2021/11/14 05:25:06;;;;;;;145.43;50.78;;;;;;;6.36;100.00;101924.19;5067123;28;20093;-75
2021/11/14 05:27:31;;;;;;;132.18;50.00;;;;;;;6.38;100.00;101943.50;5066179;28;20040;-75
2021/11/14 05:29:57;;;;;;;153.27;53.43;;;;;;;6.38;100.00;101930.22;5066990;28;20043;-76
2021/11/14 05:32:22;;;;;;;140.60;50.97;;;;;;;6.38;100.00;101939.03;5066118;28;20043;-75
2021/11/14 05:34:48;;;;;;;138.37;50.33;;;;;;;6.40;100.00;101941.59;5066570;28;20039;-75
2021/11/14 05:37:14;;;;;;;132.50;49.60;;;;;;;6.41;100.00;101951.22;5067442;28;20024;-75
2021/11/14 05:39:39;;;;;;;146.60;47.20;;;;;;;6.39;100.00;101953.13;5066207;28;20555;-76
2021/11/14 05:42:05;;;;;;;143.07;49.90;;;;;;;6.28;100.00;101932.66;5067002;28;20403;-76
2021/11/14 05:44:30;;;;;;;125.73;47.20;;;;;;;6.38;100.00;101957.59;5069983;28;20040;-75
2021/11/14 05:46:56;;;;;;;130.33;46.60;;;;;;;6.38;100.00;101956.75;5070407;28;20365;-76
2021/11/14 05:49:21;;;;;;;132.67;48.30;;;;;;;6.43;100.00;101967.88;5070855;28;20275;-76
2021/11/14 05:51:47;;;;;;;142.33;49.80;;;;;;;6.45;100.00;101966.81;5071000;28;20453;-76
2021/11/14 05:54:13;;;;;;;132.82;51.72;;;;;;;6.42;100.00;101966.22;5054131;28;20290;-75
2021/11/14 05:56:38;;;;;;;131.40;51.13;;;;;;;6.38;100.00;101964.72;5071851;28;20037;-76
2021/11/14 06:01:45;;;;;;;139.77;48.28;;;;;;;6.45;100.00;101976.59;5072045;28;20056;-76
2021/11/14 06:06:55;;;;;;;135.80;48.45;;;;;;;6.48;100.00;101981.69;5070871;28;20059;-75
2021/11/14 06:09:21;;;;;;;128.37;49.20;;;;;;;6.46;100.00;101988.91;5070916;28;20032;-75
2021/11/14 06:11:46;;;;;;;145.13;48.90;;;;;;;6.50;100.00;101990.38;5070690;28;20362;-76
2021/11/14 06:14:12;;;;;;;119.82;46.25;;;;;;;6.45;100.00;101995.16;5071501;28;20124;-76
2021/11/14 06:16:37;;;;;;;140.77;49.50;;;;;;;6.51;100.00;102008.88;5071768;28;20123;-76
2021/11/14 06:19:03;;;;;;;136.63;47.10;;;;;;;6.51;100.00;102013.34;5070747;28;20048;-76
2021/11/14 06:21:28;;;;;;;123.80;44.87;;;;;;;6.51;100.00;102008.03;5070548;28;20021;-76
2021/11/14 06:23:54;;;;;;;127.72;47.05;;;;;;;6.51;100.00;102008.03;5053767;28;20294;-76
2021/11/14 06:26:23;;;;;;;128.98;45.25;;;;;;;6.55;100.00;102014.78;5071192;28;20048;-76
2021/11/14 06:28:49;;;;;;;134.23;47.35;;;;;;;6.57;100.00;102020.00;5071048;28;20517;-76
2021/11/14 06:31:14;;;;;;;126.45;46.45;;;;;;;6.56;100.00;102021.81;5052723;28;20108;-76
2021/11/14 06:33:40;;;;;;;129.63;46.47;;;;;;;6.53;100.00;102027.31;5069034;28;20368;-76
2021/11/14 06:36:05;;;;;;;136.37;48.50;;;;;;;6.56;100.00;102035.09;5070163;28;20032;-76
2021/11/14 06:38:31;;;;;;;119.88;45.63;;;;;;;6.57;100.00;102039.44;5069056;28;20040;-76
2021/11/14 06:40:56;;;;;;;135.55;47.88;;;;;;;6.56;100.00;102043.06;5068871;28;20071;-76
2021/11/14 06:43:23;;;;;;;127.27;47.73;;;;;;;6.55;100.00;102054.59;5068796;28;20036;-76
2021/11/14 06:45:48;;;;;;;;;;;;;;;6.58;100.00;102062.38;5070421;28;20338;-76
2021/11/14 06:48:13;;;;;;;;;;;;;;;6.59;100.00;102068.53;5069378;28;20357;-76
2021/11/14 06:50:39;;;;;;;127.73;45.43;;;;;;;6.59;100.00;102072.03;5069162;28;19912;-76
2021/11/14 06:53:04;;;;;;;122.87;44.67;;;;;;;6.60;100.00;102072.88;5068370;28;20025;-76
2021/11/14 06:55:30;;;;;;;129.13;47.77;;;;;;;6.53;100.00;102061.81;5069258;28;20518;-76
2021/11/14 06:57:56;;;;;;;126.72;45.03;;;;;;;6.60;100.00;102081.66;5069105;28;20628;-76
2021/11/14 07:00:23;;;;;;;132.18;49.65;;;;;;;6.60;100.00;102084.31;5068750;28;20569;-76
2021/11/14 07:02:49;;;;;;;128.90;48.33;;;;;;;6.63;100.00;102097.41;5068717;28;20037;-76
2021/11/14 07:05:15;;;;;;;123.88;47.28;;;;;;;6.43;100.00;102068.69;5069441;28;20029;-76
2021/11/14 07:07:41;;;;;;;134.38;51.92;;;;;;;6.57;100.00;102089.84;5068615;28;20469;-76
2021/11/14 07:10:08;;;;;;;127.13;46.42;;;;;;;6.71;100.00;102091.56;5067732;28;20047;-77
2021/11/14 07:12:34;;;;;;;120.95;46.42;;;;;;;6.66;100.00;102073.28;5068108;28;20036;-77
2021/11/14 07:15:00;;;;;;;134.82;51.85;;;;;;;6.70;100.00;102085.41;5069006;28;20021;-77
2021/11/14 07:17:26;;;;;;;121.57;45.42;;;;;;;6.68;100.00;102076.69;5068410;28;20575;-77
2021/11/14 07:19:53;;;;;;;129.55;47.50;;;;;;;6.73;100.00;102076.38;5069409;28;20385;-77
2021/11/14 07:22:18;;;;;;;116.90;46.45;;;;;;;6.73;100.00;102077.22;5068020;28;20434;-77
2021/11/14 07:24:44;;;;;;;118.82;43.13;;;;;;;6.75;100.00;102077.97;5068982;28;20108;-77
2021/11/14 07:27:09;;;;;;;118.53;45.50;;;;;;;6.80;100.00;102082.97;5069258;28;20036;-77
2021/11/14 07:29:35;;;;;;;145.77;49.35;;;;;;;6.70;100.00;102069.50;5068371;28;20094;-77
2021/11/14 07:32:01;;;;;;;125.78;49.08;;;;;;;6.65;100.00;102060.13;5068931;28;20024;-76
2021/11/14 07:34:27;;;;;;;122.03;48.13;;;;;;;6.81;100.00;102078.50;5068714;28;20525;-77
2021/11/14 07:36:52;;;;;;;122.30;44.23;;;;;;;6.81;100.00;102089.97;5068695;28;20040;-76
2021/11/14 07:39:17;;;;;;;120.70;47.30;;;;;;;6.87;100.00;102099.34;5067836;28;20111;-75
2021/11/14 07:41:44;;;;;;;134.52;46.75;;;;;;;6.86;100.00;102092.31;5068688;28;20039;-77
2021/11/14 07:44:12;;;;;;;129.73;45.40;;;;;;;6.90;100.00;102115.03;5067464;28;20481;-77
2021/11/14 07:46:38;;;;;;;128.47;46.30;;;;;;;6.93;100.00;102117.47;5067717;28;20131;-77
2021/11/14 07:49:03;;;;;;;122.05;46.92;;;;;;;6.92;100.00;102113.13;5068749;28;20568;-77
2021/11/14 07:51:30;;;;;;;122.43;45.22;;;;;;;7.00;100.00;102123.22;5067573;28;20029;-77
2021/11/14 07:53:55;;;;;;;125.90;45.13;;;;;;;7.01;100.00;102128.44;5067415;28;20107;-77
2021/11/14 07:56:21;;;;;;;112.45;42.50;;;;;;;6.99;100.00;102122.38;5068541;28;20632;-76
2021/11/14 07:58:46;;;;;;;122.53;44.45;;;;;;;7.00;100.00;102123.22;5068608;28;20044;-77
2021/11/14 08:01:12;;;;;;;120.77;44.47;;;;;;;7.01;100.00;102131.09;5067145;28;20036;-76
2021/11/14 08:03:37;;;;;;;124.25;47.08;;;;;;;7.02;100.00;102138.09;5066940;28;20070;-76
2021/11/14 08:06:03;;;;;;;116.90;44.37;;;;;;;7.04;100.00;102140.66;5067481;28;20051;-77
2021/11/14 08:08:29;;;;;;;118.65;46.90;;;;;;;7.04;100.00;102138.84;5068636;28;20112;-77
2021/11/14 08:10:55;;;;;;;123.07;47.30;;;;;;;7.10;100.00;102143.75;5067422;28;20347;-77
2021/11/14 08:13:21;;;;;;;129.07;46.50;;;;;;;7.12;100.00;102147.16;5067918;28;20450;-77
2021/11/14 08:15:47;;;;;;;119.65;44.50;;;;;;;7.11;100.00;102145.44;5067361;28;20081;-77
2021/11/14 08:18:13;;;;;;;117.90;43.17;;;;;;;7.12;100.00;102149.81;5050399;28;20024;-76
2021/11/14 08:20:39;;;;;;;126.72;50.13;;;;;;;7.13;100.00;102151.50;5066906;28;20470;-76
2021/11/14 08:23:06;;;;;;;117.57;46.83;;;;;;;7.18;100.00;102161.78;5066990;28;20043;-76
2021/11/14 08:25:33;;;;;;;119.00;47.78;;;;;;;7.21;100.00;102161.59;5066808;28;20395;-77
2021/11/14 08:27:59;;;;;;;115.50;44.92;;;;;;;7.23;100.00;102153.50;5066969;28;20317;-77
2021/11/14 08:30:25;;;;;;;113.30;46.08;;;;;;;7.24;100.00;102158.72;5067400;28;20043;-77
2021/11/14 08:32:50;;;;;;;118.23;47.77;;;;;;;7.20;100.00;102151.91;5066299;28;20784;-77
2021/11/14 08:35:17;;;;;;;118.13;46.97;;;;;;;7.23;100.00;102158.81;5067016;28;20836;-76
2021/11/14 08:37:43;;;;;;;123.65;47.20;;;;;;;7.22;100.00;102157.97;5066549;28;20036;-77
2021/11/14 08:40:10;;;;;;;;;;;;;;;7.32;100.00;102164.34;5068023;28;20052;-76
2021/11/14 08:42:36;;;;;;;123.82;45.15;;;;;;;7.25;100.00;102159.56;5066399;28;19931;-77
2021/11/14 08:45:04;;;;;;;120.35;46.63;;;;;;;7.32;100.00;102169.66;5049872;28;20272;-76
2021/11/14 08:47:29;;;;;;;119.63;49.40;;;;;;;7.33;100.00;102168.72;5066610;28;20075;-76
2021/11/14 08:49:55;;;;;;;126.17;48.33;;;;;;;7.34;100.00;102166.91;5049311;28;20054;-76
2021/11/14 08:52:20;;;;;;;124.03;46.40;;;;;;;7.36;100.00;102171.16;5066150;28;20033;-77
2021/11/14 08:54:46;;;;;;;110.37;45.07;;;;;;;7.26;100.00;102161.25;5067169;28;20734;-77
2021/11/14 08:57:11;;;;;;;116.37;46.57;;;;;;;7.35;100.00;102181.88;5067719;28;20111;-76
2021/11/14 08:59:38;;;;;;;109.87;43.47;;;;;;;7.39;100.00;102186.88;5066493;28;20037;-77
2021/11/14 09:02:03;;;;;;;118.15;45.08;;;;;;;7.46;100.00;102197.94;5066766;28;20033;-77
2021/11/14 09:04:29;;;;;;;109.63;45.33;;;;;;;7.45;100.00;102195.41;5051027;28;20475;-77
2021/11/14 09:06:55;;;;;;;117.45;43.33;;;;;;;7.47;100.00;102199.66;5081636;28;20309;-77
2021/11/14 09:09:22;;;;;;;117.28;46.55;;;;;;;7.58;100.00;102204.19;5085361;28;20043;-77
2021/11/14 09:11:48;;;;;;;117.68;48.92;;;;;;;7.56;100.00;102193.69;5077985;28;20570;-77
2021/11/14 09:14:15;;;;;;;131.80;46.28;;;;;;;7.61;100.00;102206.66;5086746;28;20032;-76
2021/11/14 09:16:41;;;;;;;110.50;43.67;;;;;;;7.65;100.00;102209.94;5086708;28;20075;-77
2021/11/14 09:19:08;;;;;;;122.32;49.60;;;;;;;7.65;100.00;102215.25;5076485;28;20527;-76
2021/11/14 09:21:35;;;;;;;115.53;48.33;;;;;;;7.72;100.00;102219.19;5087961;28;20074;-76
2021/11/14 09:24:01;;;;;;;122.97;43.13;;;;;;;7.66;100.00;102212.50;5062385;28;20105;-76
2021/11/14 09:26:27;;;;;;;122.40;46.42;;;;;;;7.68;100.00;102207.06;5078665;28;20028;-76
2021/11/14 09:28:52;;;;;;;105.93;43.17;;;;;;;7.50;100.00;102195.94;5076514;28;20036;-76
2021/11/14 09:31:18;;;;;;;123.63;44.08;;;;;;;7.65;100.00;102212.59;5077961;28;20043;-76
2021/11/14 09:33:45;;;;;;;120.97;46.72;;;;;;;7.74;100.00;102222.59;5070296;28;20046;-77
2021/11/14 09:36:11;;;;;;;122.05;45.30;;;;;;;7.75;100.00;102218.94;5088188;28;20582;-76
2021/11/14 09:38:37;;;;;;;118.43;47.05;;;;;;;7.85;100.00;102228.00;5087594;28;20452;-76
2021/11/14 09:41:06;;;;;;;115.22;43.00;;;;;;;7.83;100.00;102219.28;5076918;28;20520;-77
2021/11/14 09:43:32;;;;;;;124.53;45.67;;;;;;;7.92;100.00;102231.09;5069026;28;20036;-77
2021/11/14 09:45:59;;;;;;;116.13;47.35;;;;;;;8.00;100.00;102228.72;5067649;28;20040;-76
2021/11/14 09:48:25;;;;;;;114.32;42.53;;;;;;;8.07;100.00;102234.44;5080791;28;20102;-76
2021/11/14 09:50:52;;;;;;;;;;;;;;;8.14;100.00;102230.38;5076537;28;20074;-76
2021/11/14 09:53:19;;;;;;;105.20;41.50;;;;;;;8.10;100.00;102210.28;5076623;28;19912;-77
2021/11/14 09:55:44;;;;;;;117.00;45.17;;;;;;;8.16;100.00;102225.81;5077530;28;20473;-76
2021/11/14 09:58:10;;;;;;;123.63;46.72;;;;;;;8.14;100.00;102209.09;5086807;28;20062;-77
2021/11/14 10:00:39;;;;;;;115.73;44.43;;;;;;;8.19;100.00;102223.78;5069544;28;20041;-77
2021/11/14 10:03:06;;;;;;;109.13;44.53;;;;;;;8.10;100.00;102208.50;5086691;28;20040;-77
2021/11/14 10:05:34;;;;;;;107.78;42.95;;;;;;;8.15;100.00;102221.47;5087697;28;20059;-77
2021/11/14 10:08:05;;;;;;;121.22;44.70;;;;;;;8.14;100.00;102215.25;5087728;28;20036;-77
2021/11/14 10:10:34;;;;;;;121.18;45.85;;;;;;;8.13;100.00;102208.25;5087846;28;20040;-77
2021/11/14 10:13:20;;;;;;;119.32;43.78;;;;;;;8.12;100.00;102221.66;5076272;28;20025;-77
2021/11/14 10:16:08;;;;;;;113.03;43.58;;;;;;;8.13;100.00;102228.69;5078162;28;20067;-77
2021/11/14 10:18:34;;;;;;;108.63;43.28;;;;;;;8.24;100.00;102237.59;5069987;28;20122;-77
2021/11/14 10:21:02;;;;;;;107.35;40.40;;;;;;;8.17;100.00;102227.50;5087570;28;20472;-77
2021/11/14 10:23:29;;;;;;;109.72;43.10;;;;;;;8.18;100.00;102226.56;5087541;28;20044;-76
2021/11/14 10:25:56;;;;;;;119.45;44.30;;;;;;;8.13;100.00;102223.38;5088949;28;20502;-76
2021/11/14 10:28:26;;;;;;;118.68;44.00;;;;;;;8.15;100.00;102227.63;5087912;28;20039;-77
2021/11/14 10:30:51;;;;;;;120.47;43.70;;;;;;;8.18;100.00;102227.41;5070509;28;20048;-77
2021/11/14 10:33:18;;;;;;;117.20;46.08;;;;;;;8.18;100.00;102234.53;5069678;28;20082;-77
2021/11/14 10:35:47;;;;;;;119.72;47.13;;;;;;;8.16;100.00;102237.28;5071001;28;20331;-77
2021/11/14 10:38:15;;;;;;;106.60;40.88;;;;;;;8.15;100.00;102237.44;5073197;28;20055;-77
2021/11/14 10:40:47;;;;;;;112.47;42.53;;;;;;;8.17;100.00;102233.69;5090000;28;20524;-76
2021/11/14 10:43:16;;;;;;;109.32;41.25;;;;;;;8.16;100.00;102236.44;5090974;28;20433;-77
2021/11/14 10:45:43;;;;;;;103.60;43.15;;;;;;;8.16;100.00;102239.13;5089947;28;20161;-77
2021/11/14 10:48:13;;;;;;;;;;;;;;;8.18;100.00;102245.19;5073833;28;20032;-77
2021/11/14 10:50:42;;;;;;;111.75;39.13;;;;;;;8.19;100.00;102239.75;5073221;28;19911;-77
2021/11/14 10:53:12;;;;;;;107.97;40.17;;;;;;;8.17;100.00;102232.81;5089708;28;20039;-77
2021/11/14 10:55:47;;;;;;;95.97;37.08;;;;;;;8.22;100.00;102251.97;5072874;28;20470;-77
2021/11/14 10:58:16;;;;;;;109.93;45.25;;;;;;;8.16;100.00;102245.28;5090569;28;20069;-77
2021/11/14 11:00:44;;;;;;;111.90;42.60;;;;;;;8.08;100.00;102236.13;5080989;28;20069;-76
2021/11/14 11:03:11;;;;;;;128.23;46.25;;;;;;;8.07;100.00;102239.78;5072056;28;20028;-76
2021/11/14 11:05:37;;;;;;;123.20;52.65;;;;;;;8.03;100.00;102247.97;5089727;28;20451;-76
2021/11/14 11:08:08;;;;;;;113.07;44.55;;;;;;;8.01;100.00;102252.56;5081926;28;20052;-77